Latest Weather Observations for Lord Howe Island Windy Point

IDN60801

Issued at 10:02 pm EST Saturday 30 May 2015 (issued every 30 minutes, with the page automatically refreshed every 10 minutes)

About weather observations | Map of weather stations | Latest weather observations for NSW | Other Formats
Station Details ID: 200715 Name: LORD HOWE ISLAND WINDY POINT Lat: -31.54 Lon: 159.07 Height: 4.0 m
Data from the previous 72 hours. | See also: Recent months for locations in New South Wales
Date/Time
EST
Temp
°C
App
Temp
°C
Dew
Point
Rel
Hum
%
Delta-T
°C
Wind Press
QNH
hPa
Press
MSL
hPa
Rain
since 9 am
mm
Dir
 
Spd
km/h
Gust
km/h
Spd
kts
Gust
kts
30/10:00pm - - - - - NE 9 15 5 8 - - -
30/09:30pm - - - - - ENE 9 15 5 8 - - -
30/09:00pm - - - - - NE 11 17 6 9 - - -
30/08:30pm - - - - - ENE 6 7 3 4 - - -
30/08:00pm - - - - - ENE 9 13 5 7 - - -
30/07:30pm - - - - - ENE 6 7 3 4 - - -
30/07:00pm - - - - - E 6 7 3 4 - - -
30/06:30pm - - - - - ENE 6 7 3 4 - - -
30/06:00pm - - - - - ENE 6 7 3 4 - - -
30/05:30pm - - - - - ENE 6 7 3 4 - - -
30/05:00pm - - - - - ENE 6 7 3 4 - - -
30/04:30pm - - - - - ESE 6 9 3 5 - - -
30/04:00pm - - - - - E 9 13 5 7 - - -
30/03:30pm - - - - - ESE 13 17 7 9 - - -
30/03:00pm - - - - - ESE 15 20 8 11 - - -
30/02:30pm - - - - - ESE 13 19 7 10 - - -
30/02:00pm - - - - - ESE 17 20 9 11 - - -
30/01:30pm - - - - - E 19 22 10 12 - - -
30/01:00pm - - - - - N 9 15 5 8 - - -
30/12:30pm - - - - - WSW 4 7 2 4 - - -
30/12:00pm - - - - - CALM 0 6 0 3 - - -
30/11:30am - - - - - SW 7 13 4 7 - - -
30/11:00am - - - - - SSE 9 13 5 7 - - -
30/10:30am - - - - - E 11 17 6 9 - - -
30/10:00am - - - - - SE 9 17 5 9 - - -
30/09:30am - - - - - NNE 9 11 5 6 - - -
30/09:00am - - - - - SSE 6 9 3 5 - - -
30/08:30am - - - - - ESE 4 9 2 5 - - -
30/08:00am - - - - - SE 4 9 2 5 - - -
30/07:30am - - - - - S 2 9 1 5 - - -
30/07:00am - - - - - SSW 9 11 5 6 - - -
30/06:30am - - - - - S 9 17 5 9 - - -
30/06:00am - - - - - SE 2 13 1 7 - - -
30/05:30am - - - - - CALM 0 4 0 2 - - -
30/05:00am - - - - - CALM 0 0 0 0 - - -
30/04:30am - - - - - CALM 0 7 0 4 - - -
30/04:00am - - - - - CALM 0 0 0 0 - - -
30/03:30am - - - - - SE 9 13 5 7 - - -
30/03:00am - - - - - ESE 17 26 9 14 - - -
30/02:30am - - - - - SE 19 32 10 17 - - -
30/02:00am - - - - - E 11 20 6 11 - - -
30/01:30am - - - - - S 9 17 5 9 - - -
30/01:00am - - - - - S 15 20 8 11 - - -
30/12:30am - - - - - S 13 20 7 11 - - -
30/12:00am - - - - - S 9 20 5 11 - - -
 
Date/Time
EST
Temp
°C
App
Temp
°C
Dew
Point
Rel
Hum
%
Delta-T
°C
Wind Press
QNH
hPa
Press
MSL
hPa
Rain
since 9 am
mm
Dir
 
Spd
km/h
Gust
km/h
Spd
kts
Gust
kts
29/11:30pm - - - - - S 9 15 5 8 - - -
29/11:00pm - - - - - SW 15 17 8 9 - - -
29/10:30pm - - - - - SW 13 17 7 9 - - -
29/10:00pm - - - - - SW 15 17 8 9 - - -
29/09:30pm - - - - - SW 17 20 9 11 - - -
29/09:00pm - - - - - SSW 22 30 12 16 - - -
29/08:46pm - - - - - WSW 35 46 19 25 - - -
29/08:41pm - - - - - W 37 57 20 31 - - -
29/08:35pm - - - - - WNW 30 52 16 28 - - -
29/08:30pm - - - - - NW 28 39 15 21 - - -
29/08:00pm - - - - - WNW 32 37 17 20 - - -
29/07:30pm - - - - - WSW 24 30 13 16 - - -
29/07:00pm - - - - - W 26 46 14 25 - - -
29/06:50pm - - - - - WNW 26 54 14 29 - - -
29/06:30pm - - - - - NNW 22 32 12 17 - - -
29/06:00pm - - - - - NNW 17 28 9 15 - - -
29/05:30pm - - - - - NNW 24 35 13 19 - - -
29/05:00pm - - - - - NW 24 41 13 22 - - -
29/04:44pm - - - - - NW 28 50 15 27 - - -
29/04:30pm - - - - - NW 24 33 13 18 - - -
29/04:18pm - - - - - NNW 17 39 9 21 - - -
29/04:00pm - - - - - N 6 11 3 6 - - -
29/03:30pm - - - - - WNW 7 13 4 7 - - -
29/03:00pm - - - - - NNW 11 30 6 16 - - -
29/02:30pm - - - - - NW 17 32 9 17 - - -
29/02:00pm - - - - - NW 20 33 11 18 - - -
29/01:30pm - - - - - NW 22 35 12 19 - - -
29/01:00pm - - - - - NW 24 43 13 23 - - -
29/12:30pm - - - - - NW 24 39 13 21 - - -
29/12:00pm - - - - - NW 20 30 11 16 - - -
29/11:30am - - - - - NW 19 30 10 16 - - -
29/11:00am - - - - - NW 15 30 8 16 - - -
29/10:30am - - - - - NW 17 30 9 16 - - -
29/10:00am - - - - - ESE 13 22 7 12 - - -
29/09:30am - - - - - NE 11 20 6 11 - - -
29/09:00am - - - - - N 7 13 4 7 - - -
29/08:30am - - - - - NNE 13 22 7 12 - - -
29/08:00am - - - - - NNE 13 22 7 12 - - -
29/07:30am - - - - - NNE 15 24 8 13 - - -
29/07:00am - - - - - NNE 15 22 8 12 - - -
29/06:30am - - - - - NNE 15 26 8 14 - - -
29/06:00am - - - - - NNE 13 22 7 12 - - -
29/05:30am - - - - - NNE 13 17 7 9 - - -
29/05:00am - - - - - NNE 11 20 6 11 - - -
29/04:30am - - - - - NNE 11 19 6 10 - - -
29/04:00am - - - - - NNE 9 15 5 8 - - -
29/03:30am - - - - - NNE 11 17 6 9 - - -
29/03:00am - - - - - NNE 13 20 7 11 - - -
29/02:30am - - - - - NNE 13 20 7 11 - - -
29/02:00am - - - - - NE 13 20 7 11 - - -
29/01:30am - - - - - NNE 13 20 7 11 - - -
29/01:00am - - - - - NE 11 17 6 9 - - -
29/12:30am - - - - - NNE 13 20 7 11 - - -
29/12:00am - - - - - NNE 9 17 5 9 - - -
 
Date/Time
EST
Temp
°C
App
Temp
°C
Dew
Point
Rel
Hum
%
Delta-T
°C
Wind Press
QNH
hPa
Press
MSL
hPa
Rain
since 9 am
mm
Dir
 
Spd
km/h
Gust
km/h
Spd
kts
Gust
kts
28/11:30pm - - - - - NNE 13 20 7 11 - - -
28/11:00pm - - - - - NNE 13 20 7 11 - - -
28/10:30pm - - - - - NNE 11 17 6 9 - - -
28/10:00pm - - - - - NNE 11 19 6 10 - - -
28/09:30pm - - - - - NNE 13 20 7 11 - - -
28/09:00pm - - - - - NNE 13 20 7 11 - - -
28/08:30pm - - - - - NE 13 20 7 11 - - -
28/08:00pm - - - - - NNE 11 19 6 10 - - -
28/07:30pm - - - - - NE 9 17 5 9 - - -
28/07:00pm - - - - - NE 11 17 6 9 - - -
28/06:30pm - - - - - NE 11 17 6 9 - - -
28/06:00pm - - - - - ENE 11 20 6 11 - - -
28/05:30pm - - - - - NNE 11 15 6 8 - - -
28/05:00pm - - - - - NE 13 19 7 10 - - -
28/04:30pm - - - - - NNE 9 15 5 8 - - -
28/04:00pm - - - - - ENE 9 17 5 9 - - -
28/03:30pm - - - - - NNE 11 19 6 10 - - -
28/03:00pm - - - - - NNE 9 15 5 8 - - -
28/02:30pm - - - - - NE 11 17 6 9 - - -
28/02:00pm - - - - - NNE 11 22 6 12 - - -
28/01:30pm - - - - - NNE 9 15 5 8 - - -
28/01:00pm - - - - - NNE 11 19 6 10 - - -
28/12:30pm - - - - - NNE 9 15 5 8 - - -
28/12:00pm - - - - - NE 9 15 5 8 - - -
28/11:30am - - - - - N 9 20 5 11 - - -
28/11:00am - - - - - NE 11 17 6 9 - - -
28/10:30am - - - - - ENE 9 17 5 9 - - -
28/10:00am - - - - - ENE 15 22 8 12 - - -
28/09:30am - - - - - NE 11 20 6 11 - - -
28/09:00am - - - - - NE 9 13 5 7 - - -
28/08:30am - - - - - NE 9 15 5 8 - - -
28/08:00am - - - - - ENE 9 15 5 8 - - -
28/07:30am - - - - - ENE 9 11 5 6 - - -
28/07:00am - - - - - NE 7 11 4 6 - - -
28/06:30am - - - - - ENE 9 13 5 7 - - -
28/06:00am - - - - - NNE 9 15 5 8 - - -
28/05:30am - - - - - NE 6 9 3 5 - - -
28/05:00am - - - - - NE 7 9 4 5 - - -
28/04:30am - - - - - ENE 6 7 3 4 - - -
28/04:00am - - - - - ENE 6 9 3 5 - - -
28/03:30am - - - - - NE 6 7 3 4 - - -
28/03:00am - - - - - NE 2 6 1 3 - - -
28/02:30am - - - - - ENE 6 7 3 4 - - -
28/02:00am - - - - - NE 7 9 4 5 - - -
28/01:30am - - - - - ENE 2 6 1 3 - - -
28/01:00am - - - - - ENE 7 9 4 5 - - -
28/12:30am - - - - - ENE 4 7 2 4 - - -
28/12:00am - - - - - NE 2 7 1 4 - - -
 
Date/Time
EST
Temp
°C
App
Temp
°C
Dew
Point
Rel
Hum
%
Delta-T
°C
Wind Press
QNH
hPa
Press
MSL
hPa
Rain
since 9 am
mm
Dir
 
Spd
km/h
Gust
km/h
Spd
kts
Gust
kts
27/11:30pm - - - - - ENE 6 7 3 4 - - -
27/11:00pm - - - - - ENE 6 6 3 3 - - -
27/10:30pm - - - - - ENE 7 7 4 4 - - -

Other Formats:

Comma delimited format used in spreadsheet applications
http://www.bom.gov.au/fwo/IDN60801/IDN60801.95995.axf

JavaScript Object Notation format (JSON) in row-major order
http://www.bom.gov.au/fwo/IDN60801/IDN60801.95995.json